sensor_id;sensor_type;location;lat;lon;timestamp;pressure;altitude;pressure_sealevel;temperature;humidity
79136;BME280;68533;51.090;17.216;2023-06-22T00:01:11;100391.06;;;20.48;84.89
79136;BME280;68533;51.090;17.216;2023-06-22T00:03:37;100395.97;;;20.51;84.86
79136;BME280;68533;51.090;17.216;2023-06-22T00:06:03;100394.31;;;20.50;84.89
79136;BME280;68533;51.090;17.216;2023-06-22T00:08:32;100395.16;;;20.50;84.70
79136;BME280;68533;51.090;17.216;2023-06-22T00:11:00;100396.19;;;20.46;85.55
79136;BME280;68533;51.090;17.216;2023-06-22T00:13:26;100400.59;;;20.47;84.99
79136;BME280;68533;51.090;17.216;2023-06-22T00:15:52;100393.16;;;20.39;85.38
79136;BME280;68533;51.090;17.216;2023-06-22T00:18:18;100392.72;;;20.37;85.06
79136;BME280;68533;51.090;17.216;2023-06-22T00:20:44;100392.34;;;20.38;85.63
79136;BME280;68533;51.090;17.216;2023-06-22T00:23:13;100397.84;;;20.35;85.55
79136;BME280;68533;51.090;17.216;2023-06-22T00:25:41;100397.50;;;20.36;85.51
79136;BME280;68533;51.090;17.216;2023-06-22T00:28:08;100404.22;;;20.35;85.80
79136;BME280;68533;51.090;17.216;2023-06-22T00:30:34;100403.06;;;20.36;85.35
79136;BME280;68533;51.090;17.216;2023-06-22T00:33:01;100404.22;;;20.35;85.90
79136;BME280;68533;51.090;17.216;2023-06-22T00:35:27;100414.44;;;20.31;86.04
79136;BME280;68533;51.090;17.216;2023-06-22T00:37:57;100417.59;;;20.30;85.67
79136;BME280;68533;51.090;17.216;2023-06-22T00:40:31;100422.56;;;20.24;86.45
79136;BME280;68533;51.090;17.216;2023-06-22T00:42:58;100432.91;;;20.24;86.20
79136;BME280;68533;51.090;17.216;2023-06-22T00:45:24;100433.63;;;20.21;86.25
79136;BME280;68533;51.090;17.216;2023-06-22T00:47:56;100430.03;;;20.20;86.35
79136;BME280;68533;51.090;17.216;2023-06-22T00:50:24;100440.25;;;20.16;86.31
79136;BME280;68533;51.090;17.216;2023-06-22T00:52:59;100437.81;;;20.14;86.34
79136;BME280;68533;51.090;17.216;2023-06-22T00:55:25;100442.50;;;20.23;85.22
79136;BME280;68533;51.090;17.216;2023-06-22T00:57:53;100447.25;;;20.22;85.54
79136;BME280;68533;51.090;17.216;2023-06-22T01:02:57;100446.31;;;20.06;86.23
79136;BME280;68533;51.090;17.216;2023-06-22T01:05:23;100445.25;;;19.98;86.77
79136;BME280;68533;51.090;17.216;2023-06-22T01:10:32;100442.78;;;19.85;87.50
79136;BME280;68533;51.090;17.216;2023-06-22T01:13:18;100438.94;;;19.77;88.09
79136;BME280;68533;51.090;17.216;2023-06-22T01:16:25;100443.44;;;19.69;88.05
79136;BME280;68533;51.090;17.216;2023-06-22T01:18:54;100444.81;;;19.63;88.45
79136;BME280;68533;51.090;17.216;2023-06-22T01:21:23;100449.34;;;19.56;88.31
79136;BME280;68533;51.090;17.216;2023-06-22T01:27:15;100468.97;;;19.38;90.32
79136;BME280;68533;51.090;17.216;2023-06-22T01:29:52;100463.34;;;19.47;88.98
79136;BME280;68533;51.090;17.216;2023-06-22T01:32:33;100471.22;;;19.45;88.68
79136;BME280;68533;51.090;17.216;2023-06-22T01:35:01;100465.34;;;19.47;88.60
79136;BME280;68533;51.090;17.216;2023-06-22T01:37:35;100461.28;;;19.35;89.67
79136;BME280;68533;51.090;17.216;2023-06-22T01:40:04;100460.91;;;19.25;90.12
79136;BME280;68533;51.090;17.216;2023-06-22T01:42:50;100456.88;;;19.14;90.30
79136;BME280;68533;51.090;17.216;2023-06-22T01:45:17;100466.84;;;19.03;89.84
79136;BME280;68533;51.090;17.216;2023-06-22T01:47:44;100465.25;;;18.93;90.38
79136;BME280;68533;51.090;17.216;2023-06-22T01:50:11;100467.59;;;18.82;90.70
79136;BME280;68533;51.090;17.216;2023-06-22T01:52:37;100472.41;;;18.82;90.12
79136;BME280;68533;51.090;17.216;2023-06-22T01:55:03;100466.72;;;18.90;90.43
79136;BME280;68533;51.090;17.216;2023-06-22T01:57:31;100470.00;;;18.92;90.88
79136;BME280;68533;51.090;17.216;2023-06-22T02:00:04;100477.06;;;18.90;92.04
79136;BME280;68533;51.090;17.216;2023-06-22T02:02:48;100468.25;;;18.88;91.50
79136;BME280;68533;51.090;17.216;2023-06-22T02:05:18;100464.31;;;18.89;91.19
79136;BME280;68533;51.090;17.216;2023-06-22T02:07:49;100473.34;;;18.86;91.57
79136;BME280;68533;51.090;17.216;2023-06-22T02:10:17;100470.41;;;18.82;91.62
79136;BME280;68533;51.090;17.216;2023-06-22T02:12:45;100466.38;;;18.71;92.46
79136;BME280;68533;51.090;17.216;2023-06-22T02:15:13;100477.44;;;18.59;91.88
79136;BME280;68533;51.090;17.216;2023-06-22T02:17:42;100472.75;;;18.42;92.05
79136;BME280;68533;51.090;17.216;2023-06-22T02:20:15;100468.38;;;18.33;92.04
79136;BME280;68533;51.090;17.216;2023-06-22T02:22:42;100473.16;;;18.23;93.08
79136;BME280;68533;51.090;17.216;2023-06-22T02:25:08;100471.72;;;18.17;93.97
79136;BME280;68533;51.090;17.216;2023-06-22T02:27:37;100464.50;;;18.16;94.32
79136;BME280;68533;51.090;17.216;2023-06-22T02:30:07;100467.47;;;18.11;94.73
79136;BME280;68533;51.090;17.216;2023-06-22T02:32:35;100469.66;;;17.97;93.84
79136;BME280;68533;51.090;17.216;2023-06-22T02:35:01;100462.47;;;17.88;94.86
79136;BME280;68533;51.090;17.216;2023-06-22T02:37:35;100469.06;;;17.74;95.37
79136;BME280;68533;51.090;17.216;2023-06-22T02:40:06;100465.66;;;17.69;96.51
79136;BME280;68533;51.090;17.216;2023-06-22T02:42:35;100474.44;;;17.79;96.62
79136;BME280;68533;51.090;17.216;2023-06-22T02:45:01;100475.13;;;17.85;96.70
79136;BME280;68533;51.090;17.216;2023-06-22T02:47:27;100468.34;;;17.95;96.27
79136;BME280;68533;51.090;17.216;2023-06-22T02:49:53;100467.47;;;18.11;95.15
79136;BME280;68533;51.090;17.216;2023-06-22T02:52:20;100450.50;;;18.04;95.63
79136;BME280;68533;51.090;17.216;2023-06-22T02:54:46;100456.34;;;18.11;94.41
79136;BME280;68533;51.090;17.216;2023-06-22T02:57:13;100465.72;;;18.07;95.45
79136;BME280;68533;51.090;17.216;2023-06-22T02:59:40;100461.94;;;18.03;96.33
79136;BME280;68533;51.090;17.216;2023-06-22T03:02:08;100470.28;;;18.03;94.91
79136;BME280;68533;51.090;17.216;2023-06-22T03:04:34;100468.53;;;17.98;94.69
79136;BME280;68533;51.090;17.216;2023-06-22T03:07:01;100469.16;;;17.95;95.09
79136;BME280;68533;51.090;17.216;2023-06-22T03:09:28;100479.84;;;17.93;95.78
79136;BME280;68533;51.090;17.216;2023-06-22T03:11:57;100472.75;;;18.04;95.20
79136;BME280;68533;51.090;17.216;2023-06-22T03:14:23;100465.84;;;18.10;94.10
79136;BME280;68533;51.090;17.216;2023-06-22T03:16:50;100471.09;;;18.12;93.27
79136;BME280;68533;51.090;17.216;2023-06-22T03:19:16;100481.03;;;18.21;94.10
79136;BME280;68533;51.090;17.216;2023-06-22T03:21:45;100479.72;;;18.19;95.50
79136;BME280;68533;51.090;17.216;2023-06-22T03:24:11;100486.13;;;18.19;95.21
79136;BME280;68533;51.090;17.216;2023-06-22T03:26:37;100498.88;;;18.20;95.72
79136;BME280;68533;51.090;17.216;2023-06-22T03:29:03;100497.75;;;18.21;96.01
79136;BME280;68533;51.090;17.216;2023-06-22T03:31:29;100504.59;;;18.24;95.97
79136;BME280;68533;51.090;17.216;2023-06-22T03:33:56;100518.81;;;18.31;95.55
79136;BME280;68533;51.090;17.216;2023-06-22T03:36:22;100526.16;;;18.36;95.43
79136;BME280;68533;51.090;17.216;2023-06-22T03:38:50;100521.38;;;18.45;94.61
79136;BME280;68533;51.090;17.216;2023-06-22T03:41:16;100518.91;;;18.52;94.67
79136;BME280;68533;51.090;17.216;2023-06-22T03:43:42;100520.38;;;18.58;94.86
79136;BME280;68533;51.090;17.216;2023-06-22T03:46:13;100530.44;;;18.71;93.78
79136;BME280;68533;51.090;17.216;2023-06-22T03:48:46;100522.38;;;18.78;93.49
79136;BME280;68533;51.090;17.216;2023-06-22T03:51:12;100535.66;;;18.81;93.54
79136;BME280;68533;51.090;17.216;2023-06-22T03:53:38;100530.00;;;18.90;93.23
79136;BME280;68533;51.090;17.216;2023-06-22T03:56:06;100520.97;;;18.93;93.37
79136;BME280;68533;51.090;17.216;2023-06-22T03:58:34;100528.81;;;18.99;92.64
79136;BME280;68533;51.090;17.216;2023-06-22T04:01:02;100539.75;;;19.05;92.60
79136;BME280;68533;51.090;17.216;2023-06-22T04:03:28;100535.81;;;19.06;93.00
79136;BME280;68533;51.090;17.216;2023-06-22T04:05:54;100544.28;;;19.18;92.65
79136;BME280;68533;51.090;17.216;2023-06-22T04:08:20;100543.44;;;19.17;92.33
79136;BME280;68533;51.090;17.216;2023-06-22T04:10:46;100542.63;;;19.17;92.07
79136;BME280;68533;51.090;17.216;2023-06-22T04:13:12;100546.03;;;19.22;92.56
79136;BME280;68533;51.090;17.216;2023-06-22T04:15:39;100549.78;;;19.26;92.24
79136;BME280;68533;51.090;17.216;2023-06-22T04:18:05;100539.25;;;19.32;91.64
79136;BME280;68533;51.090;17.216;2023-06-22T04:20:31;100544.06;;;19.44;91.49
79136;BME280;68533;51.090;17.216;2023-06-22T04:22:57;100542.88;;;19.53;91.35
79136;BME280;68533;51.090;17.216;2023-06-22T04:25:24;100557.69;;;19.66;90.14
79136;BME280;68533;51.090;17.216;2023-06-22T04:27:51;100556.56;;;19.79;89.93
79136;BME280;68533;51.090;17.216;2023-06-22T04:30:18;100571.34;;;19.80;88.84
79136;BME280;68533;51.090;17.216;2023-06-22T04:32:47;100564.53;;;19.89;89.60
79136;BME280;68533;51.090;17.216;2023-06-22T04:35:22;100563.75;;;20.01;89.69
79136;BME280;68533;51.090;17.216;2023-06-22T04:37:48;100564.56;;;20.01;88.91
79136;BME280;68533;51.090;17.216;2023-06-22T04:40:16;100567.59;;;20.08;89.04
79136;BME280;68533;51.090;17.216;2023-06-22T04:42:43;100560.44;;;20.20;89.29
79136;BME280;68533;51.090;17.216;2023-06-22T04:45:21;100561.59;;;20.51;87.63
79136;BME280;68533;51.090;17.216;2023-06-22T04:47:47;100567.66;;;20.66;87.57
79136;BME280;68533;51.090;17.216;2023-06-22T04:50:14;100573.22;;;20.90;86.69
79136;BME280;68533;51.090;17.216;2023-06-22T04:52:40;100575.09;;;21.22;85.33
79136;BME280;68533;51.090;17.216;2023-06-22T04:55:07;100578.16;;;21.17;85.68
79136;BME280;68533;51.090;17.216;2023-06-22T04:57:34;100581.69;;;21.42;84.41
79136;BME280;68533;51.090;17.216;2023-06-22T05:00:01;100577.41;;;21.33;84.47
79136;BME280;68533;51.090;17.216;2023-06-22T05:02:30;100572.56;;;21.57;83.48
79136;BME280;68533;51.090;17.216;2023-06-22T05:04:58;100578.56;;;21.72;81.72
79136;BME280;68533;51.090;17.216;2023-06-22T05:07:24;100579.22;;;21.53;82.93
79136;BME280;68533;51.090;17.216;2023-06-22T05:09:53;100580.00;;;21.65;83.30
79136;BME280;68533;51.090;17.216;2023-06-22T05:12:18;100584.44;;;21.94;81.97
79136;BME280;68533;51.090;17.216;2023-06-22T05:14:45;100581.91;;;22.17;81.13
79136;BME280;68533;51.090;17.216;2023-06-22T05:17:11;100574.69;;;22.16;82.06
79136;BME280;68533;51.090;17.216;2023-06-22T05:19:40;100572.06;;;22.23;80.51
79136;BME280;68533;51.090;17.216;2023-06-22T05:22:10;100574.66;;;21.88;80.93
79136;BME280;68533;51.090;17.216;2023-06-22T05:24:38;100585.44;;;22.14;79.54
79136;BME280;68533;51.090;17.216;2023-06-22T05:27:08;100584.69;;;22.45;79.10
79136;BME280;68533;51.090;17.216;2023-06-22T05:29:43;100572.28;;;22.46;76.70
79136;BME280;68533;51.090;17.216;2023-06-22T05:32:09;100573.09;;;22.62;77.13
79136;BME280;68533;51.090;17.216;2023-06-22T05:34:36;100580.63;;;22.58;77.14
79136;BME280;68533;51.090;17.216;2023-06-22T05:37:02;100577.56;;;22.79;75.98
79136;BME280;68533;51.090;17.216;2023-06-22T05:39:29;100581.63;;;22.06;78.03
79136;BME280;68533;51.090;17.216;2023-06-22T05:41:55;100572.00;;;22.20;75.06
79136;BME280;68533;51.090;17.216;2023-06-22T05:44:21;100575.81;;;22.43;76.87
79136;BME280;68533;51.090;17.216;2023-06-22T05:46:47;100572.47;;;22.53;75.89
79136;BME280;68533;51.090;17.216;2023-06-22T05:49:14;100577.09;;;22.77;74.51
79136;BME280;68533;51.090;17.216;2023-06-22T05:51:41;100577.53;;;23.10;72.51
79136;BME280;68533;51.090;17.216;2023-06-22T05:54:07;100582.00;;;22.80;70.97
79136;BME280;68533;51.090;17.216;2023-06-22T05:56:34;100579.63;;;22.66;72.01
79136;BME280;68533;51.090;17.216;2023-06-22T05:59:00;100576.47;;;22.83;71.94
79136;BME280;68533;51.090;17.216;2023-06-22T06:01:29;100585.22;;;22.66;72.13
79136;BME280;68533;51.090;17.216;2023-06-22T06:03:57;100584.06;;;22.52;74.50
79136;BME280;68533;51.090;17.216;2023-06-22T06:06:23;100585.50;;;22.93;73.42
79136;BME280;68533;51.090;17.216;2023-06-22T06:08:54;100589.69;;;22.24;73.35
79136;BME280;68533;51.090;17.216;2023-06-22T06:11:21;100585.09;;;22.31;72.09
79136;BME280;68533;51.090;17.216;2023-06-22T06:13:47;100578.44;;;22.36;71.57
79136;BME280;68533;51.090;17.216;2023-06-22T06:16:13;100579.53;;;22.63;72.26
79136;BME280;68533;51.090;17.216;2023-06-22T06:18:39;100592.63;;;22.43;72.11
79136;BME280;68533;51.090;17.216;2023-06-22T06:21:05;100587.78;;;23.03;71.42
79136;BME280;68533;51.090;17.216;2023-06-22T06:23:32;100591.09;;;23.59;69.45
79136;BME280;68533;51.090;17.216;2023-06-22T06:25:58;100593.84;;;23.75;68.44
79136;BME280;68533;51.090;17.216;2023-06-22T06:28:25;100598.03;;;24.04;68.91
79136;BME280;68533;51.090;17.216;2023-06-22T06:30:50;100601.16;;;24.37;68.53
79136;BME280;68533;51.090;17.216;2023-06-22T06:33:17;100603.53;;;24.58;65.95
79136;BME280;68533;51.090;17.216;2023-06-22T06:35:44;100611.53;;;24.56;65.92
79136;BME280;68533;51.090;17.216;2023-06-22T06:38:10;100602.09;;;24.90;64.66
79136;BME280;68533;51.090;17.216;2023-06-22T06:40:36;100600.59;;;24.51;64.86
79136;BME280;68533;51.090;17.216;2023-06-22T06:43:02;100596.16;;;24.72;65.70
79136;BME280;68533;51.090;17.216;2023-06-22T06:45:28;100605.97;;;25.31;65.68
79136;BME280;68533;51.090;17.216;2023-06-22T06:47:56;100600.91;;;24.91;64.72
79136;BME280;68533;51.090;17.216;2023-06-22T06:50:22;100603.66;;;24.88;65.80
79136;BME280;68533;51.090;17.216;2023-06-22T06:52:49;100604.41;;;25.07;63.55
79136;BME280;68533;51.090;17.216;2023-06-22T06:55:17;100600.41;;;25.61;62.40
79136;BME280;68533;51.090;17.216;2023-06-22T06:57:46;100597.16;;;25.59;62.28
79136;BME280;68533;51.090;17.216;2023-06-22T07:00:15;100599.41;;;25.76;65.53
79136;BME280;68533;51.090;17.216;2023-06-22T07:02:43;100604.75;;;26.18;61.86
79136;BME280;68533;51.090;17.216;2023-06-22T07:05:10;100611.03;;;25.71;62.76
79136;BME280;68533;51.090;17.216;2023-06-22T07:07:37;100613.59;;;24.82;63.11
79136;BME280;68533;51.090;17.216;2023-06-22T07:10:04;100617.97;;;24.79;63.54
79136;BME280;68533;51.090;17.216;2023-06-22T07:12:31;100620.84;;;25.05;64.29
79136;BME280;68533;51.090;17.216;2023-06-22T07:15:04;100612.53;;;24.90;63.67
79136;BME280;68533;51.090;17.216;2023-06-22T07:17:31;100622.31;;;25.22;64.89
79136;BME280;68533;51.090;17.216;2023-06-22T07:19:57;100626.09;;;26.19;60.62
79136;BME280;68533;51.090;17.216;2023-06-22T07:22:23;100632.53;;;26.53;59.00
79136;BME280;68533;51.090;17.216;2023-06-22T07:24:49;100637.28;;;27.30;57.62
79136;BME280;68533;51.090;17.216;2023-06-22T07:27:15;100638.69;;;27.58;55.08
79136;BME280;68533;51.090;17.216;2023-06-22T07:29:45;100639.09;;;27.53;54.74
79136;BME280;68533;51.090;17.216;2023-06-22T07:32:11;100639.38;;;28.06;54.45
79136;BME280;68533;51.090;17.216;2023-06-22T07:34:37;100642.78;;;28.61;52.73
79136;BME280;68533;51.090;17.216;2023-06-22T07:37:04;100651.31;;;28.75;53.54
79136;BME280;68533;51.090;17.216;2023-06-22T07:39:30;100648.91;;;28.84;52.41
79136;BME280;68533;51.090;17.216;2023-06-22T07:41:56;100640.66;;;28.15;54.49
79136;BME280;68533;51.090;17.216;2023-06-22T07:44:23;100644.72;;;28.29;52.12
79136;BME280;68533;51.090;17.216;2023-06-22T07:46:49;100643.66;;;29.32;47.88
79136;BME280;68533;51.090;17.216;2023-06-22T07:49:17;100626.25;;;29.62;51.29
79136;BME280;68533;51.090;17.216;2023-06-22T07:51:43;100629.13;;;28.95;50.31
79136;BME280;68533;51.090;17.216;2023-06-22T07:54:11;100630.72;;;28.78;52.92
79136;BME280;68533;51.090;17.216;2023-06-22T07:56:39;100640.38;;;28.63;53.65
79136;BME280;68533;51.090;17.216;2023-06-22T07:59:05;100639.22;;;29.07;53.93
79136;BME280;68533;51.090;17.216;2023-06-22T08:01:32;100642.03;;;29.63;49.56
79136;BME280;68533;51.090;17.216;2023-06-22T08:03:57;100638.97;;;30.93;47.95
79136;BME280;68533;51.090;17.216;2023-06-22T08:06:24;100634.50;;;31.44;45.49
79136;BME280;68533;51.090;17.216;2023-06-22T08:08:50;100631.31;;;30.21;48.20
79136;BME280;68533;51.090;17.216;2023-06-22T08:11:20;100623.75;;;29.93;51.52
79136;BME280;68533;51.090;17.216;2023-06-22T08:13:47;100620.91;;;30.73;48.72
79136;BME280;68533;51.090;17.216;2023-06-22T08:16:14;100619.84;;;30.42;46.57
79136;BME280;68533;51.090;17.216;2023-06-22T08:18:40;100624.06;;;30.13;49.11
79136;BME280;68533;51.090;17.216;2023-06-22T08:21:06;100623.44;;;29.27;47.94
79136;BME280;68533;51.090;17.216;2023-06-22T08:23:32;100617.78;;;29.38;49.48
79136;BME280;68533;51.090;17.216;2023-06-22T08:25:58;100613.19;;;30.00;47.98
79136;BME280;68533;51.090;17.216;2023-06-22T08:28:24;100621.06;;;30.41;48.67
79136;BME280;68533;51.090;17.216;2023-06-22T08:30:50;100621.91;;;30.34;47.59
79136;BME280;68533;51.090;17.216;2023-06-22T08:33:16;100621.22;;;30.09;46.82
79136;BME280;68533;51.090;17.216;2023-06-22T08:35:43;100618.00;;;30.76;43.66
79136;BME280;68533;51.090;17.216;2023-06-22T08:38:09;100611.00;;;32.15;46.12
79136;BME280;68533;51.090;17.216;2023-06-22T08:40:36;100602.69;;;32.54;42.20
79136;BME280;68533;51.090;17.216;2023-06-22T08:43:02;100605.81;;;32.90;41.13
79136;BME280;68533;51.090;17.216;2023-06-22T08:45:28;100597.38;;;32.83;39.80
79136;BME280;68533;51.090;17.216;2023-06-22T08:47:56;100592.50;;;31.96;41.23
79136;BME280;68533;51.090;17.216;2023-06-22T08:50:24;100588.28;;;30.92;43.19
79136;BME280;68533;51.090;17.216;2023-06-22T08:52:50;100584.94;;;29.65;46.35
79136;BME280;68533;51.090;17.216;2023-06-22T08:55:16;100582.53;;;28.46;49.03
79136;BME280;68533;51.090;17.216;2023-06-22T08:57:42;100572.25;;;30.01;46.29
79136;BME280;68533;51.090;17.216;2023-06-22T09:00:09;100576.44;;;29.58;46.76
79136;BME280;68533;51.090;17.216;2023-06-22T09:02:44;100586.66;;;28.91;48.25
79136;BME280;68533;51.090;17.216;2023-06-22T09:05:11;100585.25;;;28.04;51.96
79136;BME280;68533;51.090;17.216;2023-06-22T09:07:37;100575.16;;;26.35;54.08
79136;BME280;68533;51.090;17.216;2023-06-22T09:10:04;100584.38;;;27.86;50.57
79136;BME280;68533;51.090;17.216;2023-06-22T09:12:31;100586.13;;;29.75;47.55
79136;BME280;68533;51.090;17.216;2023-06-22T09:15:00;100585.00;;;30.97;45.01
79136;BME280;68533;51.090;17.216;2023-06-22T09:17:27;100593.84;;;31.09;45.82
79136;BME280;68533;51.090;17.216;2023-06-22T09:19:53;100580.38;;;29.96;43.51
79136;BME280;68533;51.090;17.216;2023-06-22T09:22:19;100590.19;;;31.05;46.87
79136;BME280;68533;51.090;17.216;2023-06-22T09:24:45;100588.41;;;30.15;44.01
79136;BME280;68533;51.090;17.216;2023-06-22T09:27:14;100590.25;;;29.56;44.63
79136;BME280;68533;51.090;17.216;2023-06-22T09:29:45;100586.94;;;30.59;43.95
79136;BME280;68533;51.090;17.216;2023-06-22T09:32:13;100582.25;;;30.27;43.14
79136;BME280;68533;51.090;17.216;2023-06-22T09:34:39;100581.38;;;29.22;48.07
79136;BME280;68533;51.090;17.216;2023-06-22T09:37:05;100582.16;;;30.45;44.53
79136;BME280;68533;51.090;17.216;2023-06-22T09:39:32;100594.91;;;31.26;44.50
79136;BME280;68533;51.090;17.216;2023-06-22T09:42:01;100578.69;;;30.13;44.13
79136;BME280;68533;51.090;17.216;2023-06-22T09:44:31;100590.66;;;28.51;47.72
79136;BME280;68533;51.090;17.216;2023-06-22T09:47:00;100576.50;;;27.47;49.84
79136;BME280;68533;51.090;17.216;2023-06-22T09:49:26;100573.66;;;27.47;51.97
79136;BME280;68533;51.090;17.216;2023-06-22T09:51:58;100585.84;;;28.77;50.19
79136;BME280;68533;51.090;17.216;2023-06-22T09:54:27;100581.25;;;30.59;43.71
79136;BME280;68533;51.090;17.216;2023-06-22T09:56:54;100580.00;;;31.52;39.32
79136;BME280;68533;51.090;17.216;2023-06-22T09:59:20;100577.19;;;32.74;37.99
79136;BME280;68533;51.090;17.216;2023-06-22T10:01:46;100589.50;;;32.91;40.97
79136;BME280;68533;51.090;17.216;2023-06-22T10:04:13;100583.88;;;32.87;37.58
79136;BME280;68533;51.090;17.216;2023-06-22T10:06:39;100575.72;;;32.35;37.20
79136;BME280;68533;51.090;17.216;2023-06-22T10:09:08;100579.13;;;31.63;42.12
79136;BME280;68533;51.090;17.216;2023-06-22T10:11:34;100585.34;;;31.06;42.00
79136;BME280;68533;51.090;17.216;2023-06-22T10:14:01;100573.47;;;30.04;43.97
79136;BME280;68533;51.090;17.216;2023-06-22T10:16:32;100585.94;;;31.31;42.32
79136;BME280;68533;51.090;17.216;2023-06-22T10:18:59;100584.75;;;32.84;37.70
79136;BME280;68533;51.090;17.216;2023-06-22T10:21:25;100576.25;;;31.96;41.47
79136;BME280;68533;51.090;17.216;2023-06-22T10:23:54;100570.84;;;28.58;46.24
79136;BME280;68533;51.090;17.216;2023-06-22T10:26:21;100565.59;;;28.43;44.75
79136;BME280;68533;51.090;17.216;2023-06-22T10:28:47;100559.44;;;30.45;41.79
79136;BME280;68533;51.090;17.216;2023-06-22T10:31:13;100559.97;;;30.29;39.76
79136;BME280;68533;51.090;17.216;2023-06-22T10:33:40;100549.16;;;30.06;38.46
79136;BME280;68533;51.090;17.216;2023-06-22T10:36:07;100550.00;;;30.66;39.74
79136;BME280;68533;51.090;17.216;2023-06-22T10:38:33;100549.03;;;31.65;39.80
79136;BME280;68533;51.090;17.216;2023-06-22T10:41:01;100541.81;;;30.09;40.90
79136;BME280;68533;51.090;17.216;2023-06-22T10:43:28;100534.81;;;31.28;40.80
79136;BME280;68533;51.090;17.216;2023-06-22T10:45:54;100530.16;;;31.07;40.26
79136;BME280;68533;51.090;17.216;2023-06-22T10:48:20;100524.72;;;29.40;42.58
79136;BME280;68533;51.090;17.216;2023-06-22T10:50:48;100515.81;;;29.30;40.51
79136;BME280;68533;51.090;17.216;2023-06-22T10:53:14;100515.47;;;30.74;37.72
79136;BME280;68533;51.090;17.216;2023-06-22T10:55:40;100517.50;;;30.74;40.68
79136;BME280;68533;51.090;17.216;2023-06-22T10:58:06;100521.66;;;32.35;39.96
79136;BME280;68533;51.090;17.216;2023-06-22T11:00:34;100517.16;;;32.38;35.61
79136;BME280;68533;51.090;17.216;2023-06-22T11:03:05;100518.94;;;31.68;38.07
79136;BME280;68533;51.090;17.216;2023-06-22T11:05:33;100511.50;;;31.09;39.23
79136;BME280;68533;51.090;17.216;2023-06-22T11:07:59;100521.13;;;31.87;40.98
79136;BME280;68533;51.090;17.216;2023-06-22T11:10:25;100515.00;;;32.46;36.76
79136;BME280;68533;51.090;17.216;2023-06-22T11:12:52;100511.94;;;33.49;35.23
79136;BME280;68533;51.090;17.216;2023-06-22T11:15:19;100501.03;;;33.64;35.35
79136;BME280;68533;51.090;17.216;2023-06-22T11:17:45;100512.84;;;34.02;32.58
79136;BME280;68533;51.090;17.216;2023-06-22T11:20:11;100509.72;;;33.37;34.99
79136;BME280;68533;51.090;17.216;2023-06-22T11:22:39;100513.00;;;33.36;36.95
79136;BME280;68533;51.090;17.216;2023-06-22T11:25:05;100505.63;;;33.38;34.90
79136;BME280;68533;51.090;17.216;2023-06-22T11:27:31;100498.03;;;34.27;35.21
79136;BME280;68533;51.090;17.216;2023-06-22T11:29:57;100507.16;;;34.18;33.85
79136;BME280;68533;51.090;17.216;2023-06-22T11:32:24;100504.72;;;34.69;35.03
79136;BME280;68533;51.090;17.216;2023-06-22T11:34:50;100494.84;;;34.90;30.91
79136;BME280;68533;51.090;17.216;2023-06-22T11:37:16;100497.00;;;35.15;34.09
79136;BME280;68533;51.090;17.216;2023-06-22T11:39:42;100488.31;;;34.89;32.90
79136;BME280;68533;51.090;17.216;2023-06-22T11:42:11;100489.94;;;34.74;32.82
79136;BME280;68533;51.090;17.216;2023-06-22T11:44:41;100495.19;;;34.76;31.03
79136;BME280;68533;51.090;17.216;2023-06-22T11:47:08;100488.06;;;35.13;30.89
79136;BME280;68533;51.090;17.216;2023-06-22T11:49:37;100482.25;;;34.87;32.57
79136;BME280;68533;51.090;17.216;2023-06-22T11:52:07;100489.13;;;35.19;33.19
79136;BME280;68533;51.090;17.216;2023-06-22T11:54:35;100491.84;;;33.76;33.27
79136;BME280;68533;51.090;17.216;2023-06-22T11:57:02;100477.13;;;33.38;33.53
79136;BME280;68533;51.090;17.216;2023-06-22T11:59:28;100484.59;;;31.85;36.81
79136;BME280;68533;51.090;17.216;2023-06-22T12:01:54;100475.38;;;31.44;36.81
79136;BME280;68533;51.090;17.216;2023-06-22T12:04:20;100473.41;;;32.28;35.16
79136;BME280;68533;51.090;17.216;2023-06-22T12:06:49;100468.31;;;31.25;34.43
79136;BME280;68533;51.090;17.216;2023-06-22T12:09:15;100472.72;;;31.64;36.97
79136;BME280;68533;51.090;17.216;2023-06-22T12:11:41;100471.88;;;31.33;40.48
79136;BME280;68533;51.090;17.216;2023-06-22T12:14:07;100463.06;;;32.11;35.05
79136;BME280;68533;51.090;17.216;2023-06-22T12:16:35;100465.34;;;31.96;36.82
79136;BME280;68533;51.090;17.216;2023-06-22T12:19:03;100463.03;;;32.88;37.40
79136;BME280;68533;51.090;17.216;2023-06-22T12:21:29;100455.53;;;33.57;35.58
79136;BME280;68533;51.090;17.216;2023-06-22T12:23:55;100454.81;;;32.70;32.27
79136;BME280;68533;51.090;17.216;2023-06-22T12:26:21;100445.47;;;33.52;34.93
79136;BME280;68533;51.090;17.216;2023-06-22T12:28:47;100438.97;;;34.40;33.60
79136;BME280;68533;51.090;17.216;2023-06-22T12:31:14;100447.34;;;35.09;32.09
79136;BME280;68533;51.090;17.216;2023-06-22T12:33:40;100443.94;;;35.14;32.59
79136;BME280;68533;51.090;17.216;2023-06-22T12:36:08;100439.44;;;34.22;34.66
79136;BME280;68533;51.090;17.216;2023-06-22T12:38:37;100438.31;;;34.97;34.54
79136;BME280;68533;51.090;17.216;2023-06-22T12:41:06;100428.34;;;34.73;32.99
79136;BME280;68533;51.090;17.216;2023-06-22T12:43:32;100433.34;;;33.09;35.90
79136;BME280;68533;51.090;17.216;2023-06-22T12:45:58;100429.44;;;34.31;36.22
79136;BME280;68533;51.090;17.216;2023-06-22T12:48:26;100429.44;;;34.31;35.39
79136;BME280;68533;51.090;17.216;2023-06-22T12:50:53;100414.53;;;33.71;34.37